Time;durP1;ratioP1;P1;durP2;ratioP2;P2;SDS_P1;SDS_P2;PMS_P1;PMS_P2;Temp;Humidity;BMP_temperature;BMP_pressure;BME280_temperature;BME280_humidity;BME280_pressure;Samples;Min_cycle;Max_cycle;Signal;HPM_P1;HPM_P2
2023/11/05 00:05:57;;;;;;;3.47;1.10;;;10.70;1.00;;;;;;5014175;28;20539;-74
2023/11/05 00:08:22;;;;;;;0.97;0.77;;;10.70;1.00;;;;;;5033066;28;20542;-74
2023/11/05 00:10:48;;;;;;;1.20;0.67;;;10.80;1.00;;;;;;5018381;28;20876;-74
2023/11/05 00:13:14;;;;;;;3.80;0.70;;;10.90;1.00;;;;;;5030771;28;20196;-73
2023/11/05 00:15:44;;;;;;;2.10;0.80;;;10.90;1.00;;;;;;5018548;28;20247;-74
2023/11/05 00:18:14;;;;;;;0.80;0.80;;;10.90;1.00;;;;;;5026540;28;20255;-74
2023/11/05 00:20:40;;;;;;;0.93;0.70;;;10.80;1.00;;;;;;5029760;28;20895;-74
2023/11/05 00:23:06;;;;;;;3.57;1.97;;;10.80;1.00;;;;;;5026226;28;20418;-74
2023/11/05 00:25:51;;;;;;;1.13;0.63;;;10.90;1.00;;;;;;5015961;28;20255;-74
2023/11/05 00:28:17;;;;;;;0.70;0.70;;;10.80;1.00;;;;;;5023397;28;20173;-73
2023/11/05 00:30:43;;;;;;;0.83;0.70;;;10.80;1.00;;;;;;5029161;28;20481;-74
2023/11/05 00:33:09;;;;;;;3.47;0.70;;;;;;;;;;5017097;28;20206;-74
2023/11/05 00:35:44;;;;;;;1.80;0.70;;;10.80;1.00;;;;;;5031891;28;20234;-79
2023/11/05 00:38:11;;;;;;;1.30;0.63;;;10.80;1.00;;;;;;5015488;28;20439;-74
2023/11/05 00:40:38;;;;;;;0.93;0.57;;;10.70;1.00;;;;;;5013118;28;20424;-74
2023/11/05 00:43:14;;;;;;;1.90;0.80;;;10.80;1.00;;;;;;5016395;28;20416;-74
2023/11/05 00:45:40;;;;;;;2.70;0.60;;;10.90;1.00;;;;;;5023961;28;20426;-74
2023/11/05 00:48:06;;;;;;;3.60;0.70;;;10.90;1.00;;;;;;5014957;28;20447;-73
2023/11/05 00:50:32;;;;;;;1.60;0.60;;;10.80;1.00;;;;;;5024319;28;20176;-73
2023/11/05 00:52:58;;;;;;;1.50;0.80;;;10.80;1.00;;;;;;5027811;28;20623;-73
2023/11/05 00:55:24;;;;;;;0.60;0.60;;;10.80;1.00;;;;;;5015251;28;20451;-74
2023/11/05 00:57:51;;;;;;;1.53;0.90;;;10.90;1.00;;;;;;5014009;28;20216;-73
2023/11/05 01:00:17;;;;;;;0.60;0.60;;;11.00;1.00;;;;;;5017736;28;20248;-74
2023/11/05 01:02:45;;;;;;;0.77;0.67;;;10.90;1.00;;;;;;5015480;28;20424;-74
2023/11/05 01:05:11;;;;;;;1.80;0.57;;;10.90;1.00;;;;;;5024619;28;20890;-74
2023/11/05 01:07:37;;;;;;;0.60;0.60;;;11.00;1.00;;;;;;5025699;28;20464;-74
2023/11/05 01:10:03;;;;;;;0.50;0.50;;;11.00;1.00;;;;;;5026634;28;20188;-74
2023/11/05 01:12:29;;;;;;;1.13;0.60;;;11.00;1.00;;;;;;5030978;28;20417;-74
2023/11/05 01:14:55;;;;;;;1.13;0.63;;;11.10;1.00;;;;;;5025783;28;20405;-74
2023/11/05 01:17:22;;;;;;;1.27;0.60;;;11.10;1.00;;;;;;5031412;28;20211;-74
2023/11/05 01:19:50;;;;;;;0.93;0.53;;;11.10;1.00;;;;;;5035180;28;20889;-74
2023/11/05 01:22:16;;;;;;;4.00;0.70;;;11.20;1.00;;;;;;5027454;28;20497;-73
2023/11/05 01:24:42;;;;;;;4.47;0.50;;;11.30;1.00;;;;;;5015491;28;20420;-74
2023/11/05 01:27:08;;;;;;;0.70;0.50;;;11.30;1.00;;;;;;5028511;28;20430;-74
2023/11/05 01:29:34;;;;;;;4.47;0.93;;;11.30;1.00;;;;;;5024925;28;20176;-73
2023/11/05 01:32:02;;;;;;;3.80;0.63;;;11.30;1.00;;;;;;5021082;28;20493;-74
2023/11/05 01:34:28;;;;;;;1.47;0.60;;;;;;;;;;5023436;28;20758;-74
2023/11/05 01:36:54;;;;;;;1.13;0.50;;;11.20;1.00;;;;;;5028260;28;20412;-73
2023/11/05 01:39:20;;;;;;;8.50;0.67;;;11.30;1.00;;;;;;5015295;28;20526;-74
2023/11/05 01:41:46;;;;;;;3.40;0.63;;;11.30;1.00;;;;;;5027784;28;20263;-74
2023/11/05 01:44:12;;;;;;;0.50;0.50;;;11.30;1.00;;;;;;5017068;28;20451;-74
2023/11/05 01:46:38;;;;;;;3.77;1.07;;;11.30;1.00;;;;;;5015352;28;20224;-74
2023/11/05 01:49:05;;;;;;;0.90;0.70;;;11.30;1.00;;;;;;5013242;28;20783;-74
2023/11/05 01:51:32;;;;;;;2.53;0.57;;;11.40;1.00;;;;;;5031488;28;20187;-81
2023/11/05 01:54:08;;;;;;;1.57;0.80;;;11.30;1.00;;;;;;5020372;28;20440;-81
2023/11/05 01:56:39;;;;;;;1.27;0.60;;;11.30;1.00;;;;;;5014985;28;20982;-81
2023/11/05 01:59:05;;;;;;;1.37;0.50;;;11.40;1.00;;;;;;5021359;28;20417;-82
2023/11/05 02:08:14;;;;;;;0.97;0.50;;;11.40;1.00;;;;;;5025829;28;20453;-74
2023/11/05 02:10:40;;;;;;;1.23;0.50;;;11.40;1.00;;;;;;5019567;28;20919;-74
2023/11/05 02:13:09;;;;;;;6.00;0.80;;;11.40;1.00;;;;;;5031051;28;20318;-74
2023/11/05 02:15:35;;;;;;;1.33;0.50;;;11.50;1.00;;;;;;5015413;28;20788;-74
2023/11/05 02:18:00;;;;;;;3.93;0.60;;;11.40;1.00;;;;;;5024967;28;20436;-73
2023/11/05 02:20:26;;;;;;;1.27;0.60;;;11.50;1.00;;;;;;5028397;28;20177;-74
2023/11/05 02:22:54;;;;;;;1.33;0.50;;;11.60;1.00;;;;;;5025894;28;20181;-74
2023/11/05 02:25:20;;;;;;;0.90;0.60;;;11.60;1.00;;;;;;5028978;28;20407;-74
2023/11/05 02:27:49;;;;;;;1.57;0.60;;;11.60;1.00;;;;;;5021857;28;20498;-74
2023/11/05 02:30:19;;;;;;;2.87;0.60;;;11.60;1.00;;;;;;5015226;28;20219;-74
2023/11/05 02:32:46;;;;;;;0.90;0.73;;;11.50;1.00;;;;;;5027593;28;20414;-74
2023/11/05 02:35:12;;;;;;;10.93;0.70;;;11.70;1.00;;;;;;5033347;28;20438;-74
2023/11/05 02:37:39;;;;;;;2.83;0.80;;;11.70;1.00;;;;;;5022275;28;20786;-74
2023/11/05 02:40:09;;;;;;;2.73;0.70;;;11.70;1.00;;;;;;5033067;28;20397;-74
2023/11/05 02:42:38;;;;;;;1.53;0.60;;;11.80;1.00;;;;;;5013248;28;20405;-74
2023/11/05 02:45:05;;;;;;;1.37;0.73;;;11.80;1.00;;;;;;5013912;28;20457;-74
2023/11/05 02:47:32;;;;;;;0.67;0.67;;;11.80;1.00;;;;;;5022136;28;20488;-74
2023/11/05 02:49:59;;;;;;;2.23;0.57;;;11.90;1.00;;;;;;5017535;28;20407;-74
2023/11/05 02:59:08;;;;;;;0.50;0.50;;;11.90;1.00;;;;;;5013756;28;20383;-81
2023/11/05 03:04:58;;;;;;;0.50;0.47;;;11.90;1.00;;;;;;5007088;28;20271;-80
2023/11/05 03:07:24;;;;;;;4.60;0.70;;;12.00;1.00;;;;;;5033748;28;20413;-74
2023/11/05 03:09:50;;;;;;;2.00;0.70;;;11.90;1.00;;;;;;5033481;28;20427;-74
2023/11/05 03:12:16;;;;;;;1.37;0.83;;;11.90;1.00;;;;;;5031353;28;20176;-73
2023/11/05 03:14:44;;;;;;;2.93;0.60;;;11.90;1.00;;;;;;5018439;28;20541;-73
2023/11/05 03:17:14;;;;;;;0.97;0.60;;;11.90;1.00;;;;;;5027848;28;20603;-74
2023/11/05 03:19:40;;;;;;;1.83;0.73;;;11.90;1.00;;;;;;5013345;28;20427;-73
2023/11/05 03:22:09;;;;;;;2.40;0.80;;;12.00;1.00;;;;;;5011850;28;20934;-73
2023/11/05 03:27:57;;;;;;;12.47;0.90;;;12.00;1.00;;;;;;5016847;28;20988;-80
2023/11/05 03:30:32;;;;;;;2.00;0.60;;;12.10;1.00;;;;;;5033128;28;20410;-81
2023/11/05 03:37:03;;;;;;;2.73;0.80;;;12.00;1.00;;;;;;5028128;28;20497;-81
2023/11/05 03:39:28;;;;;;;1.50;0.63;;;12.00;1.00;;;;;;5008624;28;20893;-74
2023/11/05 03:41:54;;;;;;;1.90;0.60;;;12.00;1.00;;;;;;5028296;28;20469;-74
2023/11/05 03:44:20;;;;;;;6.33;0.70;;;12.00;1.00;;;;;;5027466;28;20168;-74
2023/11/05 03:46:45;;;;;;;10.80;1.50;;;12.00;1.00;;;;;;5020021;28;20567;-74
2023/11/05 03:49:11;;;;;;;3.33;0.73;;;12.00;1.00;;;;;;5016719;28;20256;-74
2023/11/05 03:51:38;;;;;;;3.27;0.60;;;12.00;1.00;;;;;;5033752;28;20552;-74
2023/11/05 03:54:08;;;;;;;1.03;0.60;;;12.00;1.00;;;;;;5037183;28;20567;-74
2023/11/05 03:56:40;;;;;;;3.50;0.60;;;12.00;1.00;;;;;;5023430;28;20804;-74
2023/11/05 03:59:08;;;;;;;0.63;0.50;;;11.90;1.00;;;;;;5036774;28;20391;-74
2023/11/05 04:01:38;;;;;;;1.43;0.60;;;11.80;1.00;;;;;;5031152;28;20517;-74
2023/11/05 04:04:10;;;;;;;1.60;0.70;;;11.80;1.00;;;;;;5015917;28;20454;-74
2023/11/05 04:06:38;;;;;;;5.13;1.13;;;11.80;1.00;;;;;;5033266;28;20458;-74
2023/11/05 04:09:04;;;;;;;3.13;0.80;;;11.80;1.00;;;;;;5016773;28;20825;-74
2023/11/05 04:11:38;;;;;;;4.80;1.20;;;11.80;1.00;;;;;;5009739;28;20502;-74
2023/11/05 04:14:08;;;;;;;2.80;0.70;;;11.80;1.00;;;;;;5032681;28;20654;-74
2023/11/05 04:16:34;;;;;;;0.87;0.60;;;11.80;1.00;;;;;;5020549;28;20795;-74
2023/11/05 04:19:00;;;;;;;5.27;0.83;;;11.80;1.00;;;;;;5011126;28;20426;-74
2023/11/05 04:21:26;;;;;;;2.60;0.53;;;11.60;1.00;;;;;;5029012;28;20199;-74
2023/11/05 04:23:56;;;;;;;2.93;0.87;;;11.70;1.00;;;;;;5023739;28;20161;-81
2023/11/05 04:26:44;;;;;;;1.60;0.60;;;11.60;1.00;;;;;;5031302;28;20455;-86
2023/11/05 04:29:38;;;;;;;1.47;0.77;;;11.50;1.00;;;;;;5029627;28;20410;-86
2023/11/05 04:32:32;;;;;;;1.53;0.70;;;11.50;1.00;;;;;;5028602;28;20842;-86
2023/11/05 04:34:58;;;;;;;1.57;0.73;;;11.30;1.00;;;;;;4998934;28;20519;-87
2023/11/05 04:41:32;;;;;;;2.40;0.80;;;11.30;1.00;;;;;;5012422;28;20195;-79
2023/11/05 04:48:03;;;;;;;4.27;0.70;;;11.40;1.00;;;;;;5013566;28;20988;-79
2023/11/05 04:53:50;;;;;;;0.53;0.53;;;11.30;1.00;;;;;;5015557;28;20395;-75
2023/11/05 04:56:57;;;;;;;1.90;0.60;;;11.30;1.00;;;;;;4997019;28;20425;-85
2023/11/05 05:10:02;;;;;;;6.20;0.93;;;11.40;1.00;;;;;;5032765;28;20382;-81
2023/11/05 05:12:33;;;;;;;3.80;0.60;;;11.40;1.00;;;;;;5020739;28;20452;-81
2023/11/05 05:15:20;;;;;;;1.07;0.67;;;11.50;1.00;;;;;;5025070;28;20967;-81
2023/11/05 05:17:47;;;;;;;3.43;0.70;;;11.50;1.00;;;;;;5015358;28;20426;-81
2023/11/05 05:30:18;;;;;;;2.20;0.80;;;11.60;1.00;;;;;;5017968;28;20805;-84
2023/11/05 05:36:06;;;;;;;2.27;0.70;;;11.60;1.00;;;;;;5014969;28;20192;-83
2023/11/05 05:38:38;;;;;;;3.00;0.73;;;11.50;1.00;;;;;;5019165;28;20422;-82
2023/11/05 05:44:26;;;;;;;2.10;0.73;;;11.60;1.00;;;;;;5026073;28;20422;-81
2023/11/05 05:50:14;;;;;;;3.87;0.60;;;11.70;1.00;;;;;;5014734;28;20303;-82
2023/11/05 05:53:11;;;;;;;1.93;0.70;;;11.70;1.00;;;;;;5020142;28;20451;-81
2023/11/05 05:55:39;;;;;;;0.57;0.50;;;11.80;1.00;;;;;;5025598;28;20650;-81
2023/11/05 06:04:48;;;;;;;1.03;0.50;;;11.80;1.00;;;;;;5014858;28;20833;-83
2023/11/05 06:10:36;;;;;;;0.60;0.60;;;11.80;1.00;;;;;;5013829;28;20191;-82
2023/11/05 06:20:38;;;;;;;1.60;0.50;;;11.90;1.00;;;;;;5023600;28;20398;-82
2023/11/05 06:27:02;;;;;;;6.37;0.80;;;12.00;1.00;;;;;;5014502;28;20437;-84
2023/11/05 06:29:55;;;;;;;0.90;0.70;;;12.00;1.00;;;;;;5022457;28;20492;-84
2023/11/05 06:32:56;;;;;;;3.60;0.77;;;11.90;1.00;;;;;;5012586;28;20397;-81
2023/11/05 06:35:22;;;;;;;1.47;0.80;;;11.90;1.00;;;;;;5024621;28;20431;-81
2023/11/05 06:37:47;;;;;;;5.10;0.80;;;11.80;1.00;;;;;;5028093;28;20486;-81
2023/11/05 06:43:34;;;;;;;1.30;0.53;;;11.90;1.00;;;;;;5019001;28;20184;-81
2023/11/05 06:46:02;;;;;;;3.90;1.03;;;12.30;1.00;;;;;;5023438;28;20429;-81
2023/11/05 06:48:28;;;;;;;1.57;0.57;;;11.90;1.00;;;;;;5020551;28;20172;-81
2023/11/05 06:54:19;;;;;;;2.20;0.60;;;12.10;1.00;;;;;;5013502;28;20216;-79
2023/11/05 06:56:44;;;;;;;3.90;0.60;;;12.00;1.00;;;;;;5027046;28;20816;-75
2023/11/05 06:59:10;;;;;;;9.93;0.87;;;12.00;1.00;;;;;;5025764;28;20427;-74
2023/11/05 07:01:36;;;;;;;1.40;0.63;;;12.00;1.00;;;;;;5015324;28;20711;-74
2023/11/05 07:04:03;;;;;;;0.60;0.60;;;12.00;1.00;;;;;;5019497;28;20545;-74
2023/11/05 07:06:32;;;;;;;3.63;0.70;;;12.10;1.00;;;;;;5007453;28;20227;-74
2023/11/05 07:08:58;;;;;;;3.53;0.60;;;12.10;1.00;;;;;;5011664;28;20417;-75
2023/11/05 07:11:24;;;;;;;1.27;0.53;;;12.10;1.00;;;;;;5032661;28;20412;-74
2023/11/05 07:13:52;;;;;;;1.67;0.93;;;12.10;1.00;;;;;;5033006;28;20168;-75
2023/11/05 07:16:27;;;;;;;1.33;0.50;;;12.00;1.00;;;;;;5020810;28;20422;-75
2023/11/05 07:18:53;;;;;;;0.50;0.50;;;12.00;1.00;;;;;;5016168;28;20406;-74
2023/11/05 07:21:19;;;;;;;0.80;0.50;;;12.20;1.00;;;;;;5022423;28;20402;-75
2023/11/05 07:23:51;;;;;;;1.20;0.50;;;12.20;1.00;;;;;;5031255;28;20403;-74
2023/11/05 07:26:39;;;;;;;1.33;0.60;;;12.20;1.00;;;;;;5023157;28;20463;-81
2023/11/05 07:42:51;;;;;;;2.00;0.70;;;12.50;1.00;;;;;;5013677;28;20400;-86
2023/11/05 07:52:00;;;;;;;2.63;0.43;;;12.50;1.00;;;;;;4996842;28;20962;-84
2023/11/05 08:04:44;;;;;;;0.50;0.40;;;12.70;1.00;;;;;;5015072;28;20439;-79
2023/11/05 08:10:32;;;;;;;1.47;0.70;;;12.80;1.00;;;;;;5029915;28;21021;-79
2023/11/05 08:13:03;;;;;;;0.60;0.50;;;12.90;1.00;;;;;;5033140;28;20444;-79
2023/11/05 08:16:15;;;;;;;1.53;0.50;;;12.90;1.00;;;;;;5017384;28;20157;-78
2023/11/05 08:22:05;;;;;;;0.40;0.40;;;12.90;1.00;;;;;;5025387;28;20855;-79
2023/11/05 08:25:02;;;;;;;0.40;0.40;;;12.80;1.00;;;;;;5027165;28;20925;-79
2023/11/05 08:34:11;;;;;;;2.00;0.47;;;13.20;1.00;;;;;;5013856;28;20390;-81
2023/11/05 08:36:38;;;;;;;0.90;0.40;;;13.30;1.00;;;;;;5019257;28;20946;-82
2023/11/05 08:42:26;;;;;;;0.50;0.40;;;13.50;1.00;;;;;;5025487;28;20427;-78
2023/11/05 08:48:21;;;;;;;0.70;0.50;;;13.30;1.00;;;;;;5017306;28;20211;-78
2023/11/05 08:50:46;;;;;;;0.40;0.40;;;13.40;1.00;;;;;;5015978;28;20412;-78
2023/11/05 08:53:26;;;;;;;1.43;0.50;;;13.30;1.00;;;;;;5028940;28;20505;-78
2023/11/05 08:59:13;;;;;;;1.97;0.60;;;13.50;1.00;;;;;;5035548;28;20393;-80
2023/11/05 09:01:58;;;;;;;2.30;0.57;;;13.50;1.00;;;;;;5013212;28;20519;-80
2023/11/05 09:04:24;;;;;;;2.20;0.40;;;13.50;1.00;;;;;;5022123;28;20180;-81
2023/11/05 09:07:02;;;;;;;2.97;0.50;;;13.50;1.00;;;;;;5035535;28;20468;-81
2023/11/05 09:12:50;;;;;;;1.53;0.50;;;13.50;1.00;;;;;;5028474;28;20466;-75
2023/11/05 09:15:27;;;;;;;0.67;0.50;;;13.40;1.00;;;;;;5025712;28;21071;-75
2023/11/05 09:17:53;;;;;;;0.53;0.40;;;13.50;1.00;;;;;;5026242;28;20415;-75
2023/11/05 09:20:27;;;;;;;2.00;0.37;;;13.60;1.00;;;;;;5025859;28;20514;-75
2023/11/05 09:23:02;;;;;;;0.60;0.47;;;13.70;1.00;;;;;;5022350;28;20418;-75
2023/11/05 09:28:50;;;;;;;1.20;0.60;;;13.60;1.00;;;;;;5014956;28;20477;-80
2023/11/05 09:31:50;;;;;;;0.50;0.40;;;13.50;1.00;;;;;;5022430;28;20910;-81
2023/11/05 09:37:40;;;;;;;0.60;0.50;;;13.10;1.00;;;;;;5021432;28;20456;-81
2023/11/05 09:40:07;;;;;;;0.40;0.40;;;12.90;1.00;;;;;;5034373;28;20411;-80
2023/11/05 09:45:56;;;;;;;0.50;0.40;;;12.70;1.00;;;;;;5005761;28;20431;-81
2023/11/05 09:48:33;;;;;;;0.50;0.50;;;12.60;1.00;;;;;;5002840;28;20896;-81
2023/11/05 09:51:38;;;;;;;0.50;0.40;;;12.30;1.00;;;;;;5021633;28;20377;-82
2023/11/05 09:54:04;;;;;;;1.00;0.40;;;12.30;1.00;;;;;;5021343;28;20426;-81
2023/11/05 09:56:33;;;;;;;0.50;0.40;;;12.50;1.00;;;;;;5023461;28;20386;-75
2023/11/05 09:59:01;;;;;;;1.30;0.50;;;12.40;1.00;;;;;;5022372;28;20435;-76
2023/11/05 10:01:28;;;;;;;2.63;0.73;;;12.40;1.00;;;;;;5032927;28;20851;-75
2023/11/05 10:03:57;;;;;;;1.47;0.50;;;12.40;1.00;;;;;;5016526;28;20488;-75
2023/11/05 10:06:33;;;;;;;0.40;0.40;;;12.30;1.00;;;;;;5026222;28;20461;-75
2023/11/05 10:09:09;;;;;;;2.07;0.50;;;12.50;1.00;;;;;;5021969;28;20957;-75
2023/11/05 10:11:43;;;;;;;2.10;0.50;;;12.50;1.00;;;;;;5018868;28;21238;-75
2023/11/05 10:14:32;;;;;;;0.90;0.50;;;12.50;1.00;;;;;;5020662;28;20435;-75
2023/11/05 10:17:00;;;;;;;0.50;0.50;;;12.50;1.00;;;;;;5015161;28;20466;-75
2023/11/05 10:19:26;;;;;;;0.40;0.40;;;12.50;1.00;;;;;;5016833;28;20949;-75
2023/11/05 10:21:52;;;;;;;4.27;0.60;;;12.60;1.00;;;;;;5032973;28;20501;-75
2023/11/05 10:24:45;;;;;;;0.47;0.40;;;12.70;1.00;;;;;;5034232;28;20169;-75
2023/11/05 10:27:27;;;;;;;2.00;0.50;;;12.60;1.00;;;;;;5032930;28;20794;-75
2023/11/05 10:29:58;;;;;;;2.30;0.57;;;12.30;1.00;;;;;;5027988;28;20419;-75
2023/11/05 10:32:25;;;;;;;0.60;0.50;;;12.40;1.00;;;;;;5032321;28;20426;-75
2023/11/05 10:34:52;;;;;;;2.93;0.80;;;12.40;1.00;;;;;;5014355;28;20407;-75
2023/11/05 10:37:18;;;;;;;0.90;0.60;;;12.40;1.00;;;;;;5019464;28;20456;-74
2023/11/05 10:39:44;;;;;;;1.53;0.60;;;12.40;1.00;;;;;;5013873;28;20402;-75
2023/11/05 10:42:15;;;;;;;2.70;0.60;;;12.30;1.00;;;;;;5013586;28;20413;-75
2023/11/05 10:44:47;;;;;;;1.43;0.50;;;12.30;1.00;;;;;;5014938;28;20188;-75
2023/11/05 10:47:21;;;;;;;0.73;0.50;;;12.30;1.00;;;;;;5013878;28;20427;-75
2023/11/05 10:49:50;;;;;;;0.70;0.50;;;12.30;1.00;;;;;;5022386;28;20402;-74
2023/11/05 10:52:16;;;;;;;0.60;0.60;;;12.40;1.00;;;;;;5018088;28;20447;-75
2023/11/05 10:55:20;;;;;;;0.87;0.63;;;12.60;1.00;;;;;;5013689;28;20450;-75
2023/11/05 10:57:51;;;;;;;0.47;0.43;;;12.60;1.00;;;;;;5021673;28;20406;-81
2023/11/05 11:00:26;;;;;;;0.40;0.40;;;12.70;1.00;;;;;;5020234;28;20407;-82
2023/11/05 11:03:21;;;;;;;1.03;0.60;;;13.00;1.00;;;;;;5029595;28;20427;-81
2023/11/05 11:06:00;;;;;;;1.37;0.50;;;13.10;1.00;;;;;;5019318;28;20455;-82
2023/11/05 11:08:54;;;;;;;0.50;0.43;;;13.10;1.00;;;;;;5033034;28;20501;-82
2023/11/05 11:11:40;;;;;;;0.83;0.70;;;13.10;1.00;;;;;;5014577;28;20499;-81
2023/11/05 11:14:08;;;;;;;1.83;0.60;;;13.20;1.00;;;;;;5013819;28;20412;-75
2023/11/05 11:16:36;;;;;;;1.10;0.60;;;13.10;1.00;;;;;;5001726;28;20428;-75
2023/11/05 11:19:14;;;;;;;0.50;0.40;;;13.40;1.00;;;;;;5022454;28;20477;-75
2023/11/05 11:21:55;;;;;;;0.67;0.50;;;13.40;1.00;;;;;;5026596;28;20406;-75
2023/11/05 11:24:40;;;;;;;1.17;0.70;;;13.50;1.00;;;;;;5021971;28;20430;-75
2023/11/05 11:37:16;;;;;;;0.60;0.50;;;13.00;1.00;;;;;;5019713;28;20449;-81
2023/11/05 11:39:47;;;;;;;0.70;0.50;;;13.00;1.00;;;;;;5019643;28;20425;-82
2023/11/05 11:42:13;;;;;;;0.50;0.50;;;13.00;1.00;;;;;;5015799;28;20432;-75
2023/11/05 11:44:51;;;;;;;0.40;0.40;;;13.10;1.00;;;;;;5021813;28;20445;-75
2023/11/05 11:47:17;;;;;;;0.70;0.70;;;13.10;1.00;;;;;;5012431;28;20451;-75
2023/11/05 11:50:06;;;;;;;0.50;0.50;;;13.10;1.00;;;;;;5017324;28;20426;-75
2023/11/05 11:52:50;;;;;;;2.30;0.60;;;13.10;1.00;;;;;;5014368;28;20443;-75
2023/11/05 11:55:17;;;;;;;3.73;0.90;;;13.10;1.00;;;;;;5021713;28;20401;-75
2023/11/05 11:58:03;;;;;;;3.80;0.67;;;13.20;1.00;;;;;;5016164;28;21819;-75
2023/11/05 12:00:33;;;;;;;0.70;0.70;;;13.20;1.00;;;;;;5034026;28;20403;-75
2023/11/05 12:03:15;;;;;;;0.70;0.60;;;13.30;1.00;;;;;;5036587;28;20422;-75
2023/11/05 12:05:58;;;;;;;7.87;0.53;;;13.10;1.00;;;;;;5036885;28;20419;-75
2023/11/05 12:08:39;;;;;;;0.50;0.50;;;13.10;1.00;;;;;;5017881;28;20467;-75
2023/11/05 12:11:16;;;;;;;0.70;0.60;;;13.00;1.00;;;;;;5025271;28;20415;-75
2023/11/05 12:13:42;;;;;;;0.60;0.53;;;12.80;1.00;;;;;;5031356;28;20406;-75
2023/11/05 12:16:33;;;;;;;0.60;0.60;;;12.90;1.00;;;;;;5036774;28;20362;-75
2023/11/05 12:19:10;;;;;;;0.47;0.40;;;12.90;1.00;;;;;;5021039;28;20419;-74
2023/11/05 12:21:39;;;;;;;3.50;0.47;;;12.90;1.00;;;;;;5022077;28;20431;-74
2023/11/05 12:24:05;;;;;;;0.50;0.50;;;12.90;1.00;;;;;;5022191;28;20419;-74
2023/11/05 12:26:31;;;;;;;2.83;0.40;;;12.90;1.00;;;;;;5022835;28;20503;-75
2023/11/05 12:29:39;;;;;;;0.50;0.40;;;12.80;1.00;;;;;;5018084;28;20394;-78
2023/11/05 12:32:34;;;;;;;0.40;0.40;;;12.80;1.00;;;;;;5014973;28;20444;-78
2023/11/05 12:35:50;;;;;;;0.67;0.50;;;12.90;1.00;;;;;;5013743;28;20925;-79
2023/11/05 12:38:17;;;;;;;0.40;0.40;;;12.90;1.00;;;;;;5009290;28;20434;-78
2023/11/05 12:40:45;;;;;;;0.60;0.40;;;13.10;1.00;;;;;;5016229;28;20461;-85
2023/11/05 12:43:23;;;;;;;0.40;0.40;;;13.10;1.00;;;;;;5019414;28;20411;-75
2023/11/05 12:46:03;;;;;;;1.70;0.50;;;13.50;1.00;;;;;;5036098;28;20383;-76
2023/11/05 12:48:29;;;;;;;1.27;0.67;;;13.90;1.00;;;;;;5022588;28;20443;-74
2023/11/05 12:50:57;;;;;;;3.70;0.70;;;14.00;1.00;;;;;;5015383;28;20398;-76
2023/11/05 12:56:46;;;;;;;0.50;0.50;;;14.10;1.00;;;;;;5014528;28;20737;-74
2023/11/05 13:02:40;;;;;;;0.50;0.50;;;14.00;1.00;;;;;;5027212;28;20451;-79
2023/11/05 13:05:50;;;;;;;0.50;0.40;;;14.00;1.00;;;;;;5006149;28;20422;-80
2023/11/05 13:08:21;;;;;;;0.60;0.60;;;14.00;1.00;;;;;;5015444;28;20442;-80
2023/11/05 13:14:50;;;;;;;1.10;0.60;;;13.70;1.00;;;;;;5019381;28;20377;-82
2023/11/05 13:21:20;;;;;;;1.23;0.60;;;13.80;1.00;;;;;;5011610;28;20423;-81
2023/11/05 13:37:16;;;;;;;0.97;0.50;;;13.80;1.00;;;;;;5019329;28;20462;-78
2023/11/05 13:39:41;;;;;;;3.57;0.60;;;13.70;1.00;;;;;;5015049;28;20912;-80
2023/11/05 13:42:56;;;;;;;1.10;0.60;;;13.70;1.00;;;;;;5004787;28;20467;-81
2023/11/05 13:45:39;;;;;;;1.00;0.60;;;13.70;1.00;;;;;;5013466;28;20179;-79
2023/11/05 13:48:32;;;;;;;0.53;0.53;;;13.70;1.00;;;;;;5022991;28;20471;-79
2023/11/05 13:50:58;;;;;;;7.23;0.70;;;13.80;1.00;;;;;;5021352;28;20415;-80
2023/11/05 13:53:39;;;;;;;1.80;0.73;;;13.60;1.00;;;;;;5006301;28;20451;-78
2023/11/05 13:56:38;;;;;;;1.43;0.60;;;13.70;1.00;;;;;;5016344;28;20643;-79
2023/11/05 14:02:54;;;;;;;0.50;0.40;;;13.60;1.00;;;;;;5006906;28;20427;-79
2023/11/05 14:05:50;;;;;;;2.57;0.50;;;13.50;1.00;;;;;;5009063;28;20431;-78
2023/11/05 14:08:21;;;;;;;2.10;0.50;;;13.30;1.00;;;;;;5013474;28;20449;-80
2023/11/05 14:17:30;;;;;;;0.50;0.50;;;12.90;1.00;;;;;;5014776;28;20419;-77
2023/11/05 14:29:43;;;;;;;0.73;0.50;;;12.80;1.00;;;;;;5030251;28;20452;-75
2023/11/05 14:32:08;;;;;;;1.10;0.50;;;12.80;1.00;;;;;;5029117;28;20866;-74
2023/11/05 14:34:34;;;;;;;0.50;0.50;;;12.80;1.00;;;;;;5027598;28;20179;-74
2023/11/05 14:37:14;;;;;;;1.50;0.60;;;12.70;1.00;;;;;;5015517;28;20227;-75
2023/11/05 14:39:52;;;;;;;0.60;0.60;;;12.70;1.00;;;;;;5017520;28;20279;-75
2023/11/05 14:42:21;;;;;;;0.80;0.57;;;12.70;1.00;;;;;;5019235;28;20439;-75
2023/11/05 14:45:03;;;;;;;0.80;0.50;;;12.70;1.00;;;;;;5030273;28;20965;-79
2023/11/05 14:50:53;;;;;;;5.73;0.70;;;12.70;1.00;;;;;;5001659;28;20486;-82
2023/11/05 14:56:41;;;;;;;6.57;0.87;;;12.70;1.00;;;;;;5013667;28;20431;-82
2023/11/05 14:59:09;;;;;;;2.00;0.83;;;12.70;1.00;;;;;;5014795;28;20510;-80
2023/11/05 15:01:34;;;;;;;1.23;0.90;;;12.70;1.00;;;;;;5013447;28;20432;-81
2023/11/05 15:04:15;;;;;;;1.73;0.70;;;12.70;1.00;;;;;;5015062;28;20411;-81
2023/11/05 15:06:41;;;;;;;0.60;0.60;;;12.70;1.00;;;;;;5015469;28;20204;-79
2023/11/05 15:15:51;;;;;;;3.93;0.50;;;12.60;1.00;;;;;;5014708;28;20441;-75
2023/11/05 15:18:33;;;;;;;0.50;0.50;;;12.50;1.00;;;;;;5022285;28;20419;-75
2023/11/05 15:21:03;;;;;;;0.67;0.53;;;12.30;1.00;;;;;;5023363;28;20423;-75
2023/11/05 15:23:33;;;;;;;1.37;0.77;;;12.30;1.00;;;;;;5024788;28;20929;-75
2023/11/05 15:26:03;;;;;;;0.70;0.70;;;12.30;1.00;;;;;;5018973;28;20467;-76
2023/11/05 15:28:29;;;;;;;2.97;0.67;;;12.30;1.00;;;;;;5035401;28;20937;-74
2023/11/05 15:31:21;;;;;;;0.67;0.67;;;12.10;1.00;;;;;;5029383;28;20436;-79
2023/11/05 15:34:01;;;;;;;7.83;0.90;;;12.10;1.00;;;;;;5017507;28;20502;-79
2023/11/05 15:36:31;;;;;;;0.60;0.60;;;12.10;1.00;;;;;;5015552;28;20538;-81
2023/11/05 15:38:57;;;;;;;0.60;0.53;;;11.90;1.00;;;;;;5014858;28;20450;-81
2023/11/05 15:41:23;;;;;;;4.67;0.57;;;11.90;1.00;;;;;;5028882;28;20374;-81
2023/11/05 15:47:12;;;;;;;0.80;0.60;;;11.80;1.00;;;;;;5032359;28;20508;-82
2023/11/05 15:49:56;;;;;;;1.97;0.60;;;11.80;1.00;;;;;;5032735;28;20397;-82
2023/11/05 15:53:14;;;;;;;0.40;0.40;;;11.80;1.00;;;;;;5018513;28;20435;-83
2023/11/05 15:59:33;;;;;;;1.63;0.80;;;11.80;1.00;;;;;;5023596;28;20435;-79
2023/11/05 16:02:38;;;;;;;0.60;0.60;;;11.90;1.00;;;;;;5017217;28;20913;-79
2023/11/05 16:05:21;;;;;;;0.60;0.60;;;11.90;1.00;;;;;;5015547;28;20427;-80
2023/11/05 16:14:32;;;;;;;1.10;1.00;;;11.80;1.00;;;;;;5016935;28;20460;-80
2023/11/05 16:16:57;;;;;;;3.50;0.70;;;11.80;1.00;;;;;;5020071;28;20431;-75
2023/11/05 16:19:23;;;;;;;1.03;0.93;;;11.80;1.00;;;;;;5011274;28;20435;-73
2023/11/05 16:21:51;;;;;;;6.63;1.00;;;11.70;1.00;;;;;;5021708;28;20243;-74
2023/11/05 16:24:33;;;;;;;0.90;0.77;;;11.70;1.00;;;;;;5015851;28;20648;-74
2023/11/05 16:27:20;;;;;;;2.30;0.70;;;11.70;1.00;;;;;;5016229;28;20597;-75
2023/11/05 16:30:09;;;;;;;1.43;1.00;;;11.70;1.00;;;;;;5020777;28;20414;-81
2023/11/05 16:32:35;;;;;;;0.93;0.93;;;11.70;1.00;;;;;;5013991;28;20427;-84
2023/11/05 16:38:33;;;;;;;0.80;0.63;;;11.70;1.00;;;;;;5013698;28;20462;-86
2023/11/05 16:44:20;;;;;;;1.17;0.80;;;11.70;1.00;;;;;;4997324;28;20456;-86
2023/11/05 16:53:31;;;;;;;1.37;0.50;;;11.80;1.00;;;;;;5015446;28;20966;-81
2023/11/05 16:56:20;;;;;;;0.70;0.70;;;11.80;1.00;;;;;;5011316;28;20431;-81
2023/11/05 17:02:10;;;;;;;1.37;0.80;;;11.80;1.00;;;;;;5014561;28;20518;-80
2023/11/05 17:04:57;;;;;;;5.40;0.90;;;11.70;1.00;;;;;;5027563;28;20443;-81
2023/11/05 17:14:06;;;;;;;3.93;0.90;;;11.50;1.00;;;;;;5025302;28;20481;-80
2023/11/05 17:17:03;;;;;;;1.00;0.90;;;11.40;1.00;;;;;;5021139;28;20444;-84
2023/11/05 17:22:51;;;;;;;3.37;0.90;;;11.30;1.00;;;;;;5017974;28;20403;-84
2023/11/05 17:25:45;;;;;;;0.90;0.80;;;11.30;1.00;;;;;;5013897;28;20410;-84
2023/11/05 17:32:16;;;;;;;0.90;0.90;;;11.20;1.00;;;;;;5015584;28;20466;-80
2023/11/05 17:35:26;;;;;;;1.97;1.00;;;11.20;1.00;;;;;;5011121;28;20428;-80
2023/11/05 17:41:14;;;;;;;1.77;1.03;;;11.10;1.00;;;;;;5016275;28;20455;-81
2023/11/05 17:43:51;;;;;;;2.70;1.23;;;11.10;1.00;;;;;;5022180;28;20451;-81
2023/11/05 17:46:33;;;;;;;3.67;1.00;;;11.10;1.00;;;;;;5004442;28;20498;-81
2023/11/05 17:52:21;;;;;;;1.10;1.00;;;11.00;1.00;;;;;;5032382;28;20406;-83
2023/11/05 17:54:52;;;;;;;1.47;0.90;;;11.00;1.00;;;;;;5024754;28;20451;-74
2023/11/05 17:57:22;;;;;;;3.70;0.80;;;11.00;1.00;;;;;;5013067;28;20590;-74
2023/11/05 17:59:51;;;;;;;3.27;0.87;;;11.00;1.00;;;;;;5019285;28;20488;-74
2023/11/05 18:02:21;;;;;;;2.40;1.20;;;11.10;1.00;;;;;;5017100;28;20433;-75
2023/11/05 18:05:02;;;;;;;;;;;;;;;;;;;;;
2023/11/05 18:07:40;;;;;;;2.77;1.10;;;11.30;1.00;;;;;;5012911;28;20463;-74
2023/11/05 18:10:08;;;;;;;3.27;1.10;;;11.30;1.00;;;;;;5014502;28;20970;-74
2023/11/05 18:12:39;;;;;;;1.87;0.90;;;11.40;1.00;;;;;;5025508;28;20426;-74
2023/11/05 18:15:09;;;;;;;6.63;1.17;;;11.40;1.00;;;;;;5016175;28;20425;-74
2023/11/05 18:17:36;;;;;;;1.27;0.90;;;11.10;1.00;;;;;;5015790;28;20469;-75